Terminal Aerodrome Forecast
Issued by NWS Sterling, VA

Current Version | Previous Version | Text Only | Print | Product List | Glossary Off
Versions: 1 2 3 4 5 6 7 8 9 10 11 12 13 14 15 16 17 18 19 20 21 22 23 24

375
FTUS41 KLWX 081518 AAA
TAFIAD
TAF AMD
KIAD 081518Z 0815/0918 00000KT P6SM OVC100
     FM081900 26004KT P6SM OVC110
     FM082200 19004KT P6SM OVC100
     FM090300 00000KT P6SM OVC080
     FM090800 00000KT 3SM -SN OVC030=

USA.gov is the U.S. government's official web portal to all federal, state and local government web resources and services.